Time;durP1;ratioP1;P1;durP2;ratioP2;P2;SDS_P1;SDS_P2;PMS_P1;PMS_P2;Temp;Humidity;BMP_temperature;BMP_pressure;BME280_temperature;BME280_humidity;BME280_pressure;Samples;Min_cycle;Max_cycle;Signal;HPM_P1;HPM_P2
2023/05/30 08:18:17;;;;;;;2.92;1.23;;;;;;;;;;7397736;19;20476;-91
2023/05/30 08:21:36;;;;;;;0.50;0.50;;;;;;;;;;7390325;19;20167;-93
2023/05/30 08:24:02;;;;;;;0.63;0.63;;;;;;;;;;7390500;19;20162;-91
2023/05/30 08:26:31;;;;;;;0.70;0.70;;;;;;;;;;7391683;19;20154;-92
2023/05/30 08:28:58;;;;;;;0.47;0.47;;;;;;;;;;7387989;19;20210;-89
2023/05/30 08:31:25;;;;;;;0.82;0.82;;;;;;;;;;7395944;19;20133;-90
2023/05/30 08:33:52;;;;;;;0.70;0.70;;;;;;;;;;7389291;19;20141;-89
2023/05/30 08:36:21;;;;;;;0.43;0.43;;;;;;;;;;7390968;19;20140;-92
2023/05/30 08:38:54;;;;;;;0.30;0.30;;;;;;;;;;7391767;19;20129;-90
2023/05/30 08:41:49;;;;;;;0.50;0.50;;;;;;;;;;7389898;19;20141;-90
2023/05/30 08:44:15;;;;;;;0.70;0.70;;;;;;;;;;7389630;19;20149;-90
2023/05/30 08:46:43;;;;;;;0.50;0.50;;;;;;;;;;7388418;19;20173;-89
2023/05/30 08:49:16;;;;;;;1.13;0.60;;;;;;;;;;7389371;19;20153;-91
2023/05/30 08:51:43;;;;;;;0.70;0.70;;;;;;;;;;7390451;19;20133;-91
2023/05/30 08:54:16;;;;;;;0.70;0.70;;;;;;;;;;7388834;19;20141;-89
2023/05/30 08:56:47;;;;;;;0.63;0.63;;;;;;;;;;7388340;19;20141;-89
2023/05/30 08:59:18;;;;;;;1.05;0.95;;;;;;;;;;7387965;19;20143;-90
2023/05/30 09:01:46;;;;;;;1.13;0.82;;;;;;;;;;7386636;19;20160;-90
2023/05/30 09:04:13;;;;;;;1.98;1.30;;;;;;;;;;7385353;19;20169;-87
2023/05/30 09:06:40;;;;;;;0.93;0.90;;;;;;;;;;7391303;19;20140;-89
2023/05/30 09:09:09;;;;;;;1.10;1.08;;;;;;;;;;7398026;19;20140;-89
2023/05/30 09:11:36;;;;;;;0.50;0.50;;;;;;;;;;7394692;19;20149;-88
2023/05/30 09:14:03;;;;;;;1.05;1.05;;;;;;;;;;7387528;19;20649;-90
2023/05/30 09:16:30;;;;;;;0.63;0.55;;;;;;;;;;7389232;19;20171;-90
2023/05/30 09:18:58;;;;;;;0.77;0.77;;;;;;;;;;7389912;19;20149;-90
2023/05/30 09:21:31;;;;;;;1.20;1.10;;;;;;;;;;7390725;19;20137;-92
2023/05/30 09:24:04;;;;;;;0.57;0.57;;;;;;;;;;7389003;19;20153;-91
2023/05/30 09:26:32;;;;;;;0.90;0.90;;;;;;;;;;7391523;19;20172;-91
2023/05/30 09:29:12;;;;;;;1.08;0.98;;;;;;;;;;7390361;19;20140;-90
2023/05/30 09:31:40;;;;;;;0.50;0.50;;;;;;;;;;7391973;19;20569;-89
2023/05/30 09:34:07;;;;;;;0.88;0.88;;;;;;;;;;7397815;19;20140;-89
2023/05/30 09:36:35;;;;;;;0.57;0.55;;;;;;;;;;7395706;19;20211;-90
2023/05/30 09:39:05;;;;;;;3.00;1.17;;;;;;;;;;7398777;19;20589;-90
2023/05/30 09:41:32;;;;;;;1.02;1.00;;;;;;;;;;7391642;19;20137;-90
2023/05/30 09:44:04;;;;;;;0.73;0.73;;;;;;;;;;7388580;19;20521;-90
2023/05/30 09:46:31;;;;;;;0.93;0.93;;;;;;;;;;7390218;19;20147;-90
2023/05/30 09:48:58;;;;;;;0.50;0.50;;;;;;;;;;7391646;19;20542;-92
2023/05/30 09:51:25;;;;;;;0.93;0.93;;;;;;;;;;7388167;19;20649;-90
2023/05/30 09:54:00;;;;;;;0.52;0.52;;;;;;;;;;7389034;19;20148;-93
2023/05/30 09:56:47;;;;;;;0.93;0.93;;;;;;;;;;7392806;19;20144;-90
2023/05/30 09:59:14;;;;;;;0.82;0.68;;;;;;;;;;7395970;19;20220;-90
2023/05/30 10:01:48;;;;;;;0.57;0.57;;;;;;;;;;7403116;19;20145;-91
2023/05/30 10:04:20;;;;;;;1.30;1.25;;;;;;;;;;7395082;19;20177;-91
2023/05/30 10:06:48;;;;;;;0.60;0.60;;;;;;;;;;7397996;19;20153;-91
2023/05/30 10:09:15;;;;;;;0.60;0.60;;;;;;;;;;7392713;19;20240;-91
2023/05/30 10:11:43;;;;;;;0.60;0.60;;;;;;;;;;7388995;19;20137;-91
2023/05/30 10:14:11;;;;;;;1.85;0.80;;;;;;;;;;7393205;19;20136;-91
2023/05/30 10:21:36;;;;;;;;;;;;;;;;;;;;;
2023/05/30 10:24:47;;;;;;;0.80;0.80;;;;;;;;;;7391634;19;20136;-89
2023/05/30 10:34:56;;;;;;;0.90;0.90;;;;;;;;;;7399560;19;20161;-91
2023/05/30 11:45:53;;;;;;;0.60;0.60;;;;;;;;;;7409630;19;20156;-88
2023/05/30 11:48:20;;;;;;;1.02;1.02;;;;;;;;;;7405327;19;20212;-89
2023/05/30 11:50:47;;;;;;;0.85;0.75;;;;;;;;;;7408702;19;20236;-92
2023/05/30 11:53:17;;;;;;;0.90;0.90;;;;;;;;;;7405334;19;20137;-90
2023/05/30 11:55:48;;;;;;;0.70;0.70;;;;;;;;;;7405354;19;20136;-91
2023/05/30 11:58:16;;;;;;;1.13;1.02;;;;;;;;;;7403475;19;20143;-92
2023/05/30 12:00:47;;;;;;;0.75;0.75;;;;;;;;;;7400435;19;20208;-92
2023/05/30 12:03:18;;;;;;;0.73;0.73;;;;;;;;;;7407971;19;20136;-92
2023/05/30 12:05:46;;;;;;;0.88;0.88;;;;;;;;;;7402608;19;20149;-92
2023/05/30 12:08:18;;;;;;;2.72;1.30;;;;;;;;;;7403628;19;20133;-92
2023/05/30 12:10:50;;;;;;;0.57;0.57;;;;;;;;;;7404664;19;20183;-91
2023/05/30 12:13:21;;;;;;;0.82;0.82;;;;;;;;;;7402290;19;20145;-93
2023/05/30 12:15:48;;;;;;;0.60;0.60;;;;;;;;;;7402520;19;20638;-91
2023/05/30 12:18:17;;;;;;;1.00;0.98;;;;;;;;;;7397450;19;20137;-91
2023/05/30 12:20:45;;;;;;;0.80;0.80;;;;;;;;;;7394895;19;20562;-91
2023/05/30 12:23:12;;;;;;;0.85;0.85;;;;;;;;;;7397252;19;20137;-90
2023/05/30 12:25:39;;;;;;;0.80;0.80;;;;;;;;;;7399629;19;20536;-92
2023/05/30 12:28:06;;;;;;;0.93;0.88;;;;;;;;;;7398372;19;20136;-92
2023/05/30 12:30:36;;;;;;;0.50;0.50;;;;;;;;;;7397066;19;20161;-91
2023/05/30 12:33:16;;;;;;;0.90;0.90;;;;;;;;;;7399081;19;20149;-92
2023/05/30 12:35:44;;;;;;;0.88;0.88;;;;;;;;;;7401824;19;20137;-93
2023/05/30 12:38:18;;;;;;;1.58;1.33;;;;;;;;;;7401294;19;20148;-91
2023/05/30 12:40:46;;;;;;;2.72;0.88;;;;;;;;;;7401889;19;20152;-91
2023/05/30 12:43:25;;;;;;;0.63;0.63;;;;;;;;;;7399517;19;20481;-91
2023/05/30 12:45:51;;;;;;;1.10;1.10;;;;;;;;;;7407276;19;20525;-90
2023/05/30 12:48:18;;;;;;;0.77;0.77;;;;;;;;;;7404611;19;20133;-92
2023/05/30 12:50:45;;;;;;;0.73;0.73;;;;;;;;;;7398864;19;20155;-91
2023/05/30 12:53:12;;;;;;;0.90;0.90;;;;;;;;;;7399302;19;20161;-92
2023/05/30 12:55:38;;;;;;;3.00;1.13;;;;;;;;;;7396790;19;20481;-92
2023/05/30 12:58:05;;;;;;;1.23;1.13;;;;;;;;;;7399958;19;20220;-92
2023/05/30 13:00:31;;;;;;;1.15;1.15;;;;;;;;;;7396866;19;20161;-92
2023/05/30 13:03:02;;;;;;;0.70;0.70;;;;;;;;;;7401725;19;20180;-92
2023/05/30 13:05:30;;;;;;;0.60;0.60;;;;;;;;;;7395836;19;20136;-92
2023/05/30 13:07:56;;;;;;;1.60;1.50;;;;;;;;;;7407554;19;20158;-93
2023/05/30 13:10:23;;;;;;;1.35;1.25;;;;;;;;;;7410034;19;20157;-92
2023/05/30 13:12:50;;;;;;;1.13;1.13;;;;;;;;;;7408695;19;20158;-92
2023/05/30 13:15:16;;;;;;;0.88;0.88;;;;;;;;;;7408176;19;20157;-91
2023/05/30 13:17:43;;;;;;;1.25;1.10;;;;;;;;;;7400270;19;20577;-92
2023/05/30 13:20:10;;;;;;;2.42;1.23;;;;;;;;;;7396164;19;20156;-91
2023/05/30 13:22:37;;;;;;;0.93;0.93;;;;;;;;;;7397994;19;20148;-91
2023/05/30 13:25:04;;;;;;;1.13;1.13;;;;;;;;;;7394163;19;20144;-91
2023/05/30 13:27:31;;;;;;;1.13;1.10;;;;;;;;;;7398769;19;20133;-93
2023/05/30 13:29:57;;;;;;;1.02;1.02;;;;;;;;;;7397187;19;20174;-91
2023/05/30 13:32:24;;;;;;;0.90;0.90;;;;;;;;;;7395992;19;20151;-91
2023/05/30 13:34:50;;;;;;;0.90;0.90;;;;;;;;;;7398341;19;20136;-93
2023/05/30 13:37:25;;;;;;;1.40;1.30;;;;;;;;;;7392249;19;20617;-92
2023/05/30 13:39:52;;;;;;;1.15;1.10;;;;;;;;;;7392109;19;20560;-91
2023/05/30 13:42:19;;;;;;;0.70;0.70;;;;;;;;;;7396287;19;20196;-91
2023/05/30 13:44:46;;;;;;;0.70;0.70;;;;;;;;;;7395589;19;20133;-91
2023/05/30 13:47:13;;;;;;;0.98;0.98;;;;;;;;;;7396316;19;20598;-91
2023/05/30 13:49:42;;;;;;;1.17;1.08;;;;;;;;;;7397843;19;20177;-92
2023/05/30 13:52:09;;;;;;;0.80;0.80;;;;;;;;;;7403531;19;20140;-91
2023/05/30 13:54:40;;;;;;;3.13;1.30;;;;;;;;;;7400652;19;20165;-89
2023/05/30 13:57:07;;;;;;;1.00;1.00;;;;;;;;;;7396065;19;20232;-90
2023/05/30 13:59:34;;;;;;;1.15;1.13;;;;;;;;;;7405751;19;20152;-90
2023/05/30 14:02:01;;;;;;;0.60;0.60;;;;;;;;;;7405986;19;20172;-93
2023/05/30 14:04:28;;;;;;;1.15;1.15;;;;;;;;;;7401187;19;20125;-91
2023/05/30 14:06:55;;;;;;;0.68;0.68;;;;;;;;;;7406424;19;20136;-92
2023/05/30 14:09:21;;;;;;;1.13;1.00;;;;;;;;;;7407621;19;20172;-91
2023/05/30 14:11:49;;;;;;;1.05;1.02;;;;;;;;;;7408926;19;20133;-91
2023/05/30 14:14:19;;;;;;;1.10;1.10;;;;;;;;;;7409210;19;20522;-91
2023/05/30 14:16:46;;;;;;;0.85;0.85;;;;;;;;;;7409919;19;20483;-91
2023/05/30 14:19:13;;;;;;;1.35;1.25;;;;;;;;;;7404306;19;20137;-91
2023/05/30 14:21:40;;;;;;;1.13;1.05;;;;;;;;;;7406115;19;20133;-91
2023/05/30 14:24:07;;;;;;;1.88;1.75;;;;;;;;;;7405752;19;20395;-90
2023/05/30 14:26:34;;;;;;;2.35;1.83;;;;;;;;;;7408001;19;20174;-92
2023/05/30 14:29:04;;;;;;;1.67;1.58;;;;;;;;;;7405648;19;20141;-91
2023/05/30 14:31:31;;;;;;;1.08;1.00;;;;;;;;;;7409975;19;20133;-91
2023/05/30 14:33:57;;;;;;;1.50;1.40;;;;;;;;;;7405611;19;20565;-91
2023/05/30 14:36:25;;;;;;;2.03;1.90;;;;;;;;;;7400030;19;20491;-91
2023/05/30 14:38:52;;;;;;;2.03;1.60;;;;;;;;;;7397966;19;20149;-90
2023/05/30 14:41:19;;;;;;;0.70;0.70;;;;;;;;;;7399071;19;20173;-91
2023/05/30 14:43:46;;;;;;;0.90;0.90;;;;;;;;;;7402366;19;20129;-91
2023/05/30 14:46:13;;;;;;;2.33;1.55;;;;;;;;;;7399187;19;20143;-90
2023/05/30 14:48:42;;;;;;;1.23;0.90;;;;;;;;;;7401697;19;20125;-91
2023/05/30 14:51:10;;;;;;;1.13;1.02;;;;;;;;;;7398053;19;20532;-91
2023/05/30 14:53:37;;;;;;;1.38;1.27;;;;;;;;;;7401720;19;20151;-90
2023/05/30 14:56:04;;;;;;;1.35;1.33;;;;;;;;;;7400319;19;20593;-90
2023/05/30 14:58:31;;;;;;;0.90;0.90;;;;;;;;;;7398503;19;20523;-90
2023/05/30 15:01:28;;;;;;;0.98;0.98;;;;;;;;;;7395169;19;20145;-91
2023/05/30 15:04:08;;;;;;;0.63;0.63;;;;;;;;;;7398725;19;20569;-90
2023/05/30 15:06:35;;;;;;;1.05;0.82;;;;;;;;;;7399588;19;20657;-89
2023/05/30 15:09:05;;;;;;;1.10;1.10;;;;;;;;;;7399459;19;20129;-91
2023/05/30 15:11:34;;;;;;;2.05;1.45;;;;;;;;;;7401895;19;20200;-91
2023/05/30 15:17:00;;;;;;;2.30;1.13;;;;;;;;;;7395315;19;20165;-92
2023/05/30 15:19:27;;;;;;;0.80;0.80;;;;;;;;;;7399154;19;20192;-90
2023/05/30 15:25:01;;;;;;;0.93;0.85;;;;;;;;;;7396282;19;20179;-92
2023/05/30 15:27:28;;;;;;;0.55;0.55;;;;;;;;;;7401610;19;20155;-91
2023/05/30 15:29:55;;;;;;;1.50;1.40;;;;;;;;;;7402599;19;20167;-92
2023/05/30 15:32:21;;;;;;;0.82;0.82;;;;;;;;;;7404800;19;20545;-91
2023/05/30 15:34:48;;;;;;;1.40;1.30;;;;;;;;;;7405386;19;20136;-91
2023/05/30 15:37:15;;;;;;;1.05;0.90;;;;;;;;;;7400805;19;21284;-92
2023/05/30 15:39:44;;;;;;;1.20;1.10;;;;;;;;;;7395673;19;20177;-90
2023/05/30 15:42:11;;;;;;;0.63;0.63;;;;;;;;;;7401669;19;20160;-91
2023/05/30 15:44:37;;;;;;;0.90;0.90;;;;;;;;;;7402304;19;20136;-90
2023/05/30 15:47:23;;;;;;;1.17;1.17;;;;;;;;;;7403466;19;20141;-90
2023/05/30 15:50:05;;;;;;;0.70;0.70;;;;;;;;;;7405182;19;20642;-89
2023/05/30 15:52:38;;;;;;;1.15;0.75;;;;;;;;;;7405876;19;22321;-89
2023/05/30 15:55:44;;;;;;;0.45;0.45;;;;;;;;;;7405472;19;20257;-90
2023/05/30 15:58:57;;;;;;;0.70;0.70;;;;;;;;;;7404934;19;20729;-89
2023/05/30 16:01:43;;;;;;;1.27;1.27;;;;;;;;;;7403293;19;20145;-90
2023/05/30 16:04:27;;;;;;;1.17;1.17;;;;;;;;;;7404404;19;20164;-91
2023/05/30 16:07:11;;;;;;;2.20;1.40;;;;;;;;;;7394351;19;20137;-91
2023/05/30 16:09:40;;;;;;;0.70;0.70;;;;;;;;;;7400102;19;20156;-90
2023/05/30 16:12:07;;;;;;;1.00;1.00;;;;;;;;;;7399493;19;20213;-91
2023/05/30 16:14:34;;;;;;;0.77;0.77;;;;;;;;;;7399759;19;20132;-90
2023/05/30 16:17:02;;;;;;;1.02;1.02;;;;;;;;;;7394270;19;20181;-89
2023/05/30 16:19:31;;;;;;;0.60;0.60;;;;;;;;;;7398082;19;20173;-93
2023/05/30 16:21:58;;;;;;;1.55;0.88;;;;;;;;;;7394215;19;20145;-91
2023/05/30 16:24:25;;;;;;;0.73;0.73;;;;;;;;;;7393465;19;20145;-91
2023/05/30 16:26:51;;;;;;;0.70;0.70;;;;;;;;;;7390683;19;20148;-90
2023/05/30 16:29:19;;;;;;;1.30;1.23;;;;;;;;;;7391897;19;20169;-91
2023/05/30 16:31:46;;;;;;;0.75;0.75;;;;;;;;;;7396955;19;20145;-88
2023/05/30 16:34:14;;;;;;;1.05;1.05;;;;;;;;;;7399683;19;20506;-90
2023/05/30 16:36:43;;;;;;;1.02;0.90;;;;;;;;;;7400028;19;20204;-90
2023/05/30 16:39:11;;;;;;;1.02;1.00;;;;;;;;;;7397818;19;20165;-90
2023/05/30 16:41:39;;;;;;;0.73;0.73;;;;;;;;;;7392474;19;20137;-91
2023/05/30 16:44:06;;;;;;;1.85;1.60;;;;;;;;;;7394934;19;20185;-91
2023/05/30 16:52:01;;;;;;;;;;;;;;;;;;;;;
2023/05/30 16:55:26;;;;;;;0.73;0.73;;;;;;;;;;7394246;19;20133;-89
2023/05/30 17:07:08;;;;;;;0.77;0.77;;;;;;;;;;7384418;19;20192;-88
2023/05/30 17:09:36;;;;;;;1.00;0.90;;;;;;;;;;7399080;19;20145;-90
2023/05/30 17:12:03;;;;;;;0.73;0.73;;;;;;;;;;7399774;19;20137;-88
2023/05/30 17:14:30;;;;;;;0.75;0.75;;;;;;;;;;7397949;19;20133;-89
2023/05/30 17:16:57;;;;;;;0.75;0.75;;;;;;;;;;7398045;19;20506;-89
2023/05/30 17:19:23;;;;;;;0.50;0.50;;;;;;;;;;7399039;19;20180;-89
2023/05/30 17:21:55;;;;;;;0.73;0.73;;;;;;;;;;7399346;19;20141;-90
2023/05/30 17:24:23;;;;;;;1.05;0.95;;;;;;;;;;7395291;19;20141;-91
2023/05/30 17:26:49;;;;;;;0.60;0.60;;;;;;;;;;7396626;19;20499;-90
2023/05/30 17:29:18;;;;;;;0.65;0.65;;;;;;;;;;7398298;19;20149;-90
2023/05/30 17:31:46;;;;;;;1.27;0.98;;;;;;;;;;7397416;19;20133;-89
2023/05/30 17:34:13;;;;;;;0.77;0.77;;;;;;;;;;7396638;19;20141;-91
2023/05/30 17:36:39;;;;;;;1.08;1.08;;;;;;;;;;7393987;19;20165;-90
2023/05/30 17:39:06;;;;;;;1.27;1.17;;;;;;;;;;7394431;19;20534;-90
2023/05/30 17:41:33;;;;;;;0.80;0.80;;;;;;;;;;7396410;19;20137;-92
2023/05/30 17:44:00;;;;;;;0.63;0.63;;;;;;;;;;7399065;19;20583;-91
2023/05/30 17:46:27;;;;;;;1.00;1.00;;;;;;;;;;7394341;19;20519;-92
2023/05/30 17:48:53;;;;;;;0.65;0.65;;;;;;;;;;7398144;19;20506;-92
2023/05/30 17:51:20;;;;;;;1.08;1.08;;;;;;;;;;7390300;19;20186;-93
2023/05/30 17:53:47;;;;;;;0.75;0.75;;;;;;;;;;7391353;19;20163;-92
2023/05/30 17:56:22;;;;;;;1.00;0.98;;;;;;;;;;7390884;19;20140;-92
2023/05/30 17:58:49;;;;;;;0.95;0.93;;;;;;;;;;7394220;19;20144;-92
2023/05/30 18:01:16;;;;;;;0.52;0.52;;;;;;;;;;7392031;19;20572;-92
2023/05/30 18:03:45;;;;;;;1.05;1.00;;;;;;;;;;7393801;19;20143;-90
2023/05/30 18:06:14;;;;;;;0.60;0.60;;;;;;;;;;7390715;19;20158;-92
2023/05/30 18:08:52;;;;;;;1.23;1.13;;;;;;;;;;7394896;19;20528;-89
2023/05/30 18:11:19;;;;;;;1.13;1.10;;;;;;;;;;7395346;19;20327;-89
2023/05/30 18:13:49;;;;;;;0.75;0.75;;;;;;;;;;7402877;19;20137;-89
2023/05/30 18:16:22;;;;;;;0.93;0.93;;;;;;;;;;7394314;19;20209;-91
2023/05/30 18:18:49;;;;;;;0.60;0.45;;;;;;;;;;7397731;19;20146;-88
2023/05/30 18:21:16;;;;;;;1.05;1.05;;;;;;;;;;7401135;19;20176;-87
2023/05/30 18:23:43;;;;;;;0.88;0.88;;;;;;;;;;7399946;19;20157;-88
2023/05/30 18:26:14;;;;;;;0.90;0.90;;;;;;;;;;7398314;19;20173;-93
2023/05/30 18:28:41;;;;;;;0.80;0.80;;;;;;;;;;7393934;19;20212;-93
2023/05/30 18:31:08;;;;;;;0.75;0.70;;;;;;;;;;7387929;19;20148;-93
2023/05/30 18:33:35;;;;;;;0.80;0.80;;;;;;;;;;7394030;19;20141;-93
2023/05/30 18:36:02;;;;;;;0.75;0.75;;;;;;;;;;7393279;19;20621;-92
2023/05/30 18:38:40;;;;;;;0.80;0.80;;;;;;;;;;7391090;19;20147;-93
2023/05/30 18:41:07;;;;;;;1.10;1.00;;;;;;;;;;7389921;19;20189;-92
2023/05/30 18:43:34;;;;;;;0.73;0.73;;;;;;;;;;7389653;19;20133;-92
2023/05/30 18:46:02;;;;;;;0.77;0.77;;;;;;;;;;7387406;19;20488;-92
2023/05/30 18:48:30;;;;;;;3.65;1.00;;;;;;;;;;7391021;19;20146;-93
2023/05/30 18:51:11;;;;;;;0.55;0.55;;;;;;;;;;7395501;19;20179;-92
2023/05/30 18:53:37;;;;;;;1.02;0.98;;;;;;;;;;7394363;19;20147;-92
2023/05/30 18:56:04;;;;;;;0.43;0.43;;;;;;;;;;7401129;19;20228;-92
2023/05/30 18:58:31;;;;;;;0.52;0.52;;;;;;;;;;7399257;19;20148;-92
2023/05/30 19:00:58;;;;;;;1.33;1.23;;;;;;;;;;7401638;19;20148;-91
2023/05/30 19:03:25;;;;;;;0.70;0.70;;;;;;;;;;7398125;19;20148;-92
2023/05/30 19:05:52;;;;;;;0.68;0.68;;;;;;;;;;7396074;19;20148;-92
2023/05/30 19:08:19;;;;;;;1.42;1.10;;;;;;;;;;7396782;19;20181;-91
2023/05/30 19:10:46;;;;;;;0.85;0.85;;;;;;;;;;7400144;19;20239;-92
2023/05/30 19:13:13;;;;;;;0.82;0.82;;;;;;;;;;7399825;19;20148;-92
2023/05/30 19:15:42;;;;;;;0.52;0.52;;;;;;;;;;7402130;19;20189;-93
2023/05/30 19:18:12;;;;;;;0.50;0.50;;;;;;;;;;7397393;19;20141;-92
2023/05/30 19:20:39;;;;;;;0.60;0.60;;;;;;;;;;7395309;19;20171;-92
2023/05/30 19:23:06;;;;;;;0.40;0.40;;;;;;;;;;7398844;19;20137;-92
2023/05/30 19:25:33;;;;;;;1.65;1.00;;;;;;;;;;7406312;19;20137;-93
2023/05/30 19:28:10;;;;;;;0.60;0.60;;;;;;;;;;7406503;19;20147;-92
2023/05/30 19:30:39;;;;;;;0.90;0.90;;;;;;;;;;7408947;19;20523;-92
2023/05/30 19:33:09;;;;;;;0.80;0.80;;;;;;;;;;7414361;19;20164;-91
2023/05/30 19:35:36;;;;;;;0.75;0.75;;;;;;;;;;7414311;19;20141;-92
2023/05/30 19:38:02;;;;;;;0.70;0.70;;;;;;;;;;7414475;19;20140;-91
2023/05/30 19:40:30;;;;;;;0.50;0.50;;;;;;;;;;7411296;19;20169;-92
2023/05/30 19:42:58;;;;;;;1.25;1.15;;;;;;;;;;7411041;19;20133;-92
2023/05/30 19:45:25;;;;;;;0.30;0.30;;;;;;;;;;7408218;19;20141;-92
2023/05/30 19:47:53;;;;;;;1.10;1.10;;;;;;;;;;7403473;19;20140;-92
2023/05/30 19:50:21;;;;;;;1.50;0.68;;;;;;;;;;7400993;19;20180;-91
2023/05/30 19:52:47;;;;;;;0.43;0.43;;;;;;;;;;7405361;19;20148;-92
2023/05/30 19:55:15;;;;;;;0.40;0.40;;;;;;;;;;7401026;19;20146;-92
2023/05/30 19:57:42;;;;;;;0.52;0.52;;;;;;;;;;7398826;19;20140;-94
2023/05/30 20:00:10;;;;;;;0.88;0.52;;;;;;;;;;7400188;19;20149;-91
2023/05/30 20:02:39;;;;;;;2.08;0.85;;;;;;;;;;7393929;19;20502;-93
2023/05/30 20:05:06;;;;;;;1.27;1.23;;;;;;;;;;7397244;19;20151;-92
2023/05/30 20:07:33;;;;;;;0.40;0.40;;;;;;;;;;7400528;19;20144;-91
2023/05/30 20:09:59;;;;;;;0.40;0.40;;;;;;;;;;7399544;19;20176;-92
2023/05/30 20:12:26;;;;;;;0.75;0.75;;;;;;;;;;7400231;19;20137;-92
2023/05/30 20:14:53;;;;;;;0.63;0.63;;;;;;;;;;7398928;19;20149;-91
2023/05/30 20:17:19;;;;;;;0.50;0.50;;;;;;;;;;7399921;19;20133;-90
2023/05/30 20:19:46;;;;;;;0.75;0.75;;;;;;;;;;7399251;19;20153;-89
2023/05/30 20:22:13;;;;;;;0.60;0.60;;;;;;;;;;7401945;19;20642;-89
2023/05/30 20:24:40;;;;;;;0.40;0.40;;;;;;;;;;7400214;19;20144;-89
2023/05/30 20:27:07;;;;;;;0.50;0.50;;;;;;;;;;7402657;19;20141;-87
2023/05/30 20:29:33;;;;;;;0.70;0.70;;;;;;;;;;7404461;19;20179;-86
2023/05/30 20:32:01;;;;;;;1.23;1.20;;;;;;;;;;7404854;19;20151;-86
2023/05/30 20:34:27;;;;;;;0.50;0.50;;;;;;;;;;7402241;19;20136;-87
2023/05/30 20:36:54;;;;;;;0.50;0.50;;;;;;;;;;7405661;19;20137;-86
2023/05/30 20:39:21;;;;;;;0.80;0.80;;;;;;;;;;7402399;19;20636;-87
2023/05/30 20:41:48;;;;;;;0.47;0.47;;;;;;;;;;7405039;19;20151;-87
2023/05/30 20:44:16;;;;;;;1.13;0.95;;;;;;;;;;7401921;19;20161;-87
2023/05/30 20:46:42;;;;;;;0.82;0.82;;;;;;;;;;7405397;19;20137;-87
2023/05/30 20:49:09;;;;;;;0.43;0.43;;;;;;;;;;7402228;19;20136;-87
2023/05/30 20:51:36;;;;;;;0.65;0.65;;;;;;;;;;7402742;19;20549;-87
2023/05/30 20:54:03;;;;;;;0.88;0.88;;;;;;;;;;7405941;19;20149;-87
2023/05/30 20:56:30;;;;;;;0.90;0.90;;;;;;;;;;7404166;19;20148;-88
2023/05/30 20:58:56;;;;;;;0.85;0.85;;;;;;;;;;7405507;19;20196;-90
2023/05/30 21:01:23;;;;;;;0.68;0.68;;;;;;;;;;7396178;19;20149;-90
2023/05/30 21:03:52;;;;;;;1.17;1.13;;;;;;;;;;7396933;19;20140;-88
2023/05/30 21:06:19;;;;;;;0.82;0.82;;;;;;;;;;7396892;19;20176;-87
2023/05/30 21:08:45;;;;;;;0.68;0.68;;;;;;;;;;7401754;19;20148;-88
2023/05/30 21:11:12;;;;;;;0.47;0.47;;;;;;;;;;7399958;19;20153;-89
2023/05/30 21:13:40;;;;;;;1.05;0.95;;;;;;;;;;7397728;19;20236;-89
2023/05/30 21:16:07;;;;;;;0.85;0.85;;;;;;;;;;7402533;19;20429;-88
2023/05/30 21:18:34;;;;;;;0.73;0.73;;;;;;;;;;7398151;19;20480;-89
2023/05/30 21:21:01;;;;;;;0.90;0.82;;;;;;;;;;7396457;19;20189;-88
2023/05/30 21:23:28;;;;;;;1.15;1.05;;;;;;;;;;7399020;19;20157;-88
2023/05/30 21:25:55;;;;;;;1.33;1.23;;;;;;;;;;7398490;19;20521;-88
2023/05/30 21:28:22;;;;;;;0.40;0.40;;;;;;;;;;7396374;19;20154;-88
2023/05/30 21:30:48;;;;;;;2.38;0.82;;;;;;;;;;7396698;19;20163;-89
2023/05/30 21:33:15;;;;;;;0.77;0.40;;;;;;;;;;7397450;19;20482;-89
2023/05/30 21:35:42;;;;;;;0.70;0.70;;;;;;;;;;7396521;19;20177;-86
2023/05/30 21:38:08;;;;;;;0.65;0.65;;;;;;;;;;7396145;19;20477;-88
2023/05/30 21:40:39;;;;;;;0.50;0.50;;;;;;;;;;7393413;19;20180;-88
2023/05/30 21:43:06;;;;;;;0.75;0.75;;;;;;;;;;7394676;19;20176;-89
2023/05/30 21:45:33;;;;;;;0.47;0.47;;;;;;;;;;7393308;19;20145;-89
2023/05/30 21:47:59;;;;;;;0.52;0.52;;;;;;;;;;7394985;19;20165;-88
2023/05/30 21:50:27;;;;;;;0.60;0.60;;;;;;;;;;7396487;19;20176;-88
2023/05/30 21:52:53;;;;;;;0.70;0.70;;;;;;;;;;7398439;19;20494;-89
2023/05/30 21:55:20;;;;;;;0.73;0.73;;;;;;;;;;7399114;19;20132;-89
2023/05/30 21:57:47;;;;;;;0.70;0.70;;;;;;;;;;7401509;19;20143;-89
2023/05/30 22:00:14;;;;;;;0.82;0.82;;;;;;;;;;7401540;19;20161;-89
2023/05/30 22:02:46;;;;;;;0.70;0.70;;;;;;;;;;7402744;19;20637;-89
2023/05/30 22:05:13;;;;;;;1.10;0.95;;;;;;;;;;7398489;19;20177;-90
2023/05/30 22:07:40;;;;;;;0.40;0.40;;;;;;;;;;7400344;19;20148;-89
2023/05/30 22:10:07;;;;;;;0.73;0.73;;;;;;;;;;7399080;19;20583;-90
2023/05/30 22:12:33;;;;;;;0.65;0.65;;;;;;;;;;7401189;19;20212;-89
2023/05/30 22:15:01;;;;;;;1.02;0.85;;;;;;;;;;7396560;19;20144;-89
2023/05/30 22:17:28;;;;;;;2.95;1.30;;;;;;;;;;7398063;19;20145;-90
2023/05/30 22:19:55;;;;;;;0.32;0.32;;;;;;;;;;7395289;19;20153;-89
2023/05/30 22:22:21;;;;;;;0.50;0.50;;;;;;;;;;7396482;19;20141;-89
2023/05/30 22:24:48;;;;;;;0.40;0.40;;;;;;;;;;7398391;19;20145;-89
2023/05/30 22:27:15;;;;;;;0.60;0.60;;;;;;;;;;7404325;19;20129;-89
2023/05/30 22:29:42;;;;;;;0.70;0.70;;;;;;;;;;7402650;19;20591;-89
2023/05/30 22:32:08;;;;;;;0.40;0.40;;;;;;;;;;7403334;19;20557;-89
2023/05/30 22:34:35;;;;;;;0.35;0.35;;;;;;;;;;7402012;19;20662;-89
2023/05/30 22:37:02;;;;;;;1.15;1.05;;;;;;;;;;7402211;19;20158;-89
2023/05/30 22:39:29;;;;;;;0.35;0.35;;;;;;;;;;7400544;19;20165;-89
2023/05/30 22:41:56;;;;;;;0.40;0.40;;;;;;;;;;7401655;19;20494;-89
2023/05/30 22:44:23;;;;;;;0.80;0.80;;;;;;;;;;7401752;19;20483;-89
2023/05/30 22:46:51;;;;;;;0.55;0.55;;;;;;;;;;7400711;19;20157;-89
2023/05/30 22:49:18;;;;;;;0.70;0.70;;;;;;;;;;7400111;19;20165;-90
2023/05/30 22:51:45;;;;;;;0.63;0.63;;;;;;;;;;7400374;19;20140;-89
2023/05/30 22:54:12;;;;;;;0.70;0.63;;;;;;;;;;7398171;19;20481;-89
2023/05/30 22:56:39;;;;;;;0.90;0.90;;;;;;;;;;7401486;19;20152;-90
2023/05/30 22:59:05;;;;;;;1.10;0.63;;;;;;;;;;7400632;19;20633;-90
2023/05/30 23:01:32;;;;;;;0.40;0.40;;;;;;;;;;7400648;19;20137;-90
2023/05/30 23:03:59;;;;;;;0.38;0.38;;;;;;;;;;7400627;19;20635;-88
2023/05/30 23:06:26;;;;;;;1.05;0.70;;;;;;;;;;7398129;19;20141;-90
2023/05/30 23:08:52;;;;;;;0.52;0.52;;;;;;;;;;7397526;19;20125;-90
2023/05/30 23:11:20;;;;;;;0.98;0.82;;;;;;;;;;7398181;19;20159;-90
2023/05/30 23:13:46;;;;;;;0.60;0.50;;;;;;;;;;7401729;19;20420;-89
2023/05/30 23:16:14;;;;;;;1.00;0.95;;;;;;;;;;7401579;19;20140;-89
2023/05/30 23:18:41;;;;;;;0.30;0.30;;;;;;;;;;7400059;19;20145;-89
2023/05/30 23:21:08;;;;;;;0.40;0.40;;;;;;;;;;7400237;19;20168;-89
2023/05/30 23:23:35;;;;;;;0.60;0.60;;;;;;;;;;7400599;19;20145;-89
2023/05/30 23:26:02;;;;;;;0.50;0.50;;;;;;;;;;7400662;19;20147;-90
2023/05/30 23:28:28;;;;;;;0.85;0.85;;;;;;;;;;7400039;19;20147;-89
2023/05/30 23:30:55;;;;;;;0.90;0.90;;;;;;;;;;7399312;19;20582;-89
2023/05/30 23:33:22;;;;;;;0.40;0.40;;;;;;;;;;7402123;19;20133;-89
2023/05/30 23:35:48;;;;;;;0.70;0.70;;;;;;;;;;7404301;19;20149;-87
2023/05/30 23:38:15;;;;;;;0.60;0.60;;;;;;;;;;7402443;19;20582;-89
2023/05/30 23:40:42;;;;;;;1.20;0.57;;;;;;;;;;7403781;19;20176;-87
2023/05/30 23:43:08;;;;;;;0.30;0.30;;;;;;;;;;7405960;19;20540;-88
2023/05/30 23:45:35;;;;;;;0.40;0.40;;;;;;;;;;7400409;19;20145;-88
2023/05/30 23:48:02;;;;;;;0.70;0.70;;;;;;;;;;7403558;19;20133;-90
2023/05/30 23:50:29;;;;;;;0.55;0.55;;;;;;;;;;7404761;19;20157;-87
2023/05/30 23:52:55;;;;;;;0.80;0.80;;;;;;;;;;7406317;19;20212;-89
2023/05/30 23:55:22;;;;;;;0.65;0.65;;;;;;;;;;7405246;19;21065;-89
2023/05/30 23:57:48;;;;;;;0.70;0.70;;;;;;;;;;7398749;19;20129;-89
